Valentino Lombardo

Главный скаут - Frosinone
19 Ноя 2028
Воскресенье
Продолжить

Характер

Адаптивность (8) Амбиции (14) Скандальность (6) Верность (5) Стрессоустойчивость (8) Профессионализм (16) Благородство (9) Темперамент (3)

Профиль

Стиль управления Демократичный
Лицензия Континентальная A
Решительность 8
Управление людьми 11
Мотивация 11
Дисциплина 12
Удовлетворённость
100%
Усталость
0%
Должность Главный скаут
Зарплата 81.8K в нед.
Контракт 14.03.2029

Производительность

Поведение Хорошее
Эффективность тренировок
43%
Развитие игроков
50%
Профилактика травм
35%
Тактическая реализация
20%

Недавние события

Участвовал в селекционном совещании только что
Рекомендовал трансферную цель только что
Участвовал в селекционном совещании 7 дн. назад
Рекомендовал трансферную цель 7 дн. назад
Участвовал в селекционном совещании 7 дн. назад
Участвовал в селекционном совещании 7 дн. назад
Участвовал в селекционном совещании 14 дн. назад
Участвовал в селекционном совещании 14 дн. назад

Текущее наблюдение

168
Игрок Клуб Статус Способность Уверенность Наблюдений Последнее наблюдение Последний голос
Keita Baldé Monza Активный 137 / 137 42% 1 / 1m 01.11.2028 -
Trey Nyoni Rotherham United Активный 140 / 151 40% 5 29.08.2028 -
Branimir Mlačić Udinese Активный 126 / 128 40% 1 29.08.2028 -
Mirza Ćatović VfB Stuttgart Активный 129 / 129 40% 1 29.08.2028 -
Alessandro Raimo Catania Отчёт готов 109 / 103 83% 1 28.08.2028 -
Celías Ingenthron Platense Активный 120 / 129 40% 1 21.08.2028 -
Johan Solstad-Nøis Tromso Активный 103 / 98 40% 1 21.08.2028 -
Honest Ahanor Atalanta Активный 136 / 142 40% 1 21.08.2028 -
Gianluca Caprari Padova Отчёт готов 123 / 121 83% 1 07.08.2028 -
Luka Vušković Tottenham Активный 150 / 160 40% 2 31.07.2028 -
Riquelme Thompson-Jones Accrington Stanley Активный 113 / 120 40% 8 31.07.2028 -
Tyler Fletcher Rotherham United Активный 114 / 126 40% 3 31.07.2028 -
Kiani Inge Groningen Активный 116 / 120 40% 5 26.06.2028 -
Ayden Heaven Portsmouth Активный 148 / 147 40% 9 26.06.2028 -
Christos Mouzakitis Hull City Активный 141 / 145 40% 4 11.06.2028 -
Augusto Bando Ascoli Активный 110 / 113 40% 4 31.05.2028 -
Nicolò Moranduzzo Renate Активный 90 / 93 40% 5 30.05.2028 -
Giovanni Leoni Lincoln City Активный 144 / 141 40% 5 29.05.2028 -
Josh Nichols Oldham Athletic Активный 123 / 125 40% 2 20.05.2028 -
Amine Boukamir Charleroi Активный 105 / 115 40% 3 19.05.2028 -
Bernardo Lima Porto Активный 107 / 119 40% 6 19.05.2028 -
Jan Bürger Northampton Town Активный 120 / 120 40% 6 17.05.2028 -
Olivier Leroux Mouscron Активный 106 / 108 40% 17 13.05.2028 -
Daniel Banjaqui Benfica Активный 124 / 133 40% 5 13.05.2028 -
Raul Tassoni Catanzaro Активный 100 / 102 40% 1 04.05.2028 -
Jorthy Mokio ADO Den Haag Активный 131 / 140 40% 5 21.04.2028 -
Andrea Bertoncini Triestina Активный 96 / 107 40% 6 19.04.2028 -
Josh Acheampong Everton Активный 140 / 142 40% 5 19.04.2028 -
Federico Matarán Giana Erminio Активный 102 / 108 40% 8 17.04.2028 -
Alessio Insignito Spezia Активный 106 / 115 40% 2 17.04.2028 -
Andrea Cogoni Cosenza Активный 112 / 120 40% 4 17.04.2028 -
Martim Cunha Porto Активный 107 / 118 40% 11 15.04.2028 -
Miguel Figueiredo Benfica Активный 116 / 125 40% 7 13.04.2028 -
Tobiáš Pališčák Zlin Активный 95 / 116 40% 2 13.03.2028 -
Matvey Bardachev Zenit Активный 106 / 112 40% 3 08.03.2028 -
Olivier Mambwa Young Boys Активный 111 / 114 40% 2 28.02.2028 -
Andrey Ivlev Nizhniy Novgorod Активный 105 / 113 40% 1 17.02.2028 -
Colin Guske Orlando City Активный 96 / 108 40% 1 11.02.2028 -
Mao Hosoya Santos Активный 134 / 135 67% 1 01.01.2028 -
Kwesi Sorotu Badori Berekum Chelsea Активный 94 / 94 40% 2 31.12.2027 -
Yury Oyarzo Racing Активный 85 / 104 40% 1 31.12.2027 -
Nicolas Sport Recife Активный 112 / 105 40% 2 30.12.2027 -
Niccolò Fortini Fiorentina Активный 138 / 148 40% 1 29.12.2027 -
Victor Hernandez Santa Fe Активный 117 / 138 40% 6 28.12.2027 -
Juan Camilo Córdoba Deportivo Pereira Активный 86 / 106 40% 1 28.12.2027 -
Pedro Vian Seewald Dolomiti Bellunesi Активный 99 / 112 40% 4 25.12.2027 -
Ignacio Fernández Boston River Активный 89 / 95 40% 2 24.12.2027 -
Jon Esenga IF Elfsborg Активный 94 / 115 40% 2 24.12.2027 -
Joel Ezra Enyimba Активный 89 / 100 40% 2 22.12.2027 -
Diego Vargas Universidad de Concepcion Активный 100 / 110 40% 1 18.12.2027 -
Hugo Rojas Instituto Активный 108 / 100 40% 2 17.12.2027 -
Lucas Camejo River Plate Активный 81 / 98 40% 2 15.12.2027 -
Frederik Damkjer Viborg Активный 88 / 90 40% 1 14.12.2027 -
Francisco Triver River Plate Активный 93 / 101 40% 1 13.12.2027 -
Kerim Alajbegović Modena Активный 136 / 145 40% 3 12.12.2027 -
Musa Malik Ikorodu City Активный 96 / 105 40% 4 12.12.2027 -
Ousseynou Seck Randers Активный 115 / 128 40% 1 12.12.2027 -
Emmanuel Ndubueze Shooting Stars Активный 84 / 102 40% 2 09.12.2027 -
Joseph Abah Remo Stars Активный 87 / 104 40% 1 09.12.2027 -
Luis Yanes Real Cartagena Активный 84 / 86 40% 1 08.12.2027 -
Chimobi Igwilo Rangers International Активный 90 / 92 40% 1 08.12.2027 -
Alphadjo Cissé Lecce Активный 132 / 136 40% 2 07.12.2027 -
Nupe Godstime Bayelsa United Активный 96 / 104 40% 1 07.12.2027 -
Kabiru Abdullahi Barau Активный 82 / 90 40% 3 06.12.2027 -
Pedro Baltika Активный 137 / 147 40% 1 04.12.2027 -
Giovanni Baroni Talleres Активный 116 / 112 40% 1 30.11.2027 -
Sindre Walle Egeli Udinese Активный 138 / 133 40% 2 29.11.2027 -
Gianluca Prestianni Benfica Активный 144 / 145 40% 2 29.11.2027 -
Alex Verón Vélez Активный 107 / 129 40% 1 29.11.2027 -
Matías Arias Vélez Активный 119 / 111 40% 2 28.11.2027 -
Francisco Marchant Colo-Colo Активный 97 / 89 40% 1 27.11.2027 -
Tiago Pucciarelli IF Elfsborg Активный 103 / 93 40% 2 26.11.2027 -
Abdulrahman Hamisu Niger Tornadoes Активный 88 / 100 40% 2 25.11.2027 -
Ruben Ramos LA Galaxy Активный 105 / 109 40% 1 22.11.2027 -
Tomás Aranda Boca Juniors Активный 117 / 122 40% 1 21.11.2027 -
Keyano Marrah Hammarby Активный 95 / 89 40% 1 20.11.2027 -
Idris Ajiya Nasarawa United Активный 78 / 82 40% 1 20.11.2027 -
Elion Krosa Odd Активный 82 / 103 40% 1 19.11.2027 -
Roberto Insigne Catania Активный 112 / 109 79% 1 02.08.2027 -
Kike Pérez Venezia Активный 133 / 132 79% 1 01.06.2027 -
Sascha Britschgi AC Milan Активный 124 / 126 40% 7 30.05.2027 -
Riyad Idrissi Cagliari Активный 121 / 129 40% 6 27.05.2027 -
Riley Owen Stevenage Активный 101 / 101 40% 4 27.05.2027 -
Samuele di Benedetto Twente Активный 113 / 120 40% 2 26.05.2027 -
Ezra Mayers West Ham United Активный 116 / 121 40% 2 24.05.2027 -
Hosea Michael Remo Stars Активный 81 / 102 40% 1 24.05.2027 -
Bence Dárdai VfL Wolfsburg Активный 132 / 129 40% 3 22.05.2027 -
Kazunari Kita Real Sociedad Активный 102 / 110 40% 6 20.05.2027 -
Tiago Freitas Benfica Активный 108 / 109 40% 6 16.05.2027 -
Jacopo Bacci Sorrento Активный 103 / 110 40% 2 12.05.2027 -
David Ozoh Derby County Активный 116 / 123 40% 2 19.04.2027 -
Tommaso Cecotti Carpi Активный 92 / 98 40% 5 15.04.2027 -
Charlie Gray Fleetwood Town Активный 94 / 90 40% 1 12.04.2027 -
Leandro Martins Benfica Активный 95 / 100 40% 4 09.04.2027 -
Gonçalo Oliveira Benfica Активный 109 / 113 40% 5 07.04.2027 -
Afriyie Sulemana WAFA Активный 90 / 94 40% 2 01.04.2027 -
Alessandro Zoboletti Sambenedettese Активный 92 / 90 40% 7 30.03.2027 -
Konta Ismaily Активный 94 / 100 40% 1 25.03.2027 -
Samuele Diodato Lumezzane Активный 87 / 97 40% 1 04.03.2027 -
Edwin Asamoah Berekum Chelsea Активный 86 / 98 40% 4 26.02.2027 -
Federico Valentini Forli Активный 89 / 88 40% 2 22.02.2027 -
Cemran Dansin Orlando Pirates Активный 107 / 116 40% 1 09.02.2027 -
Kamaldeen Atiemo Wa All Stars Активный 105 / 109 40% 1 08.02.2027 -
Simphiwe Selepe Orlando Pirates Активный 110 / 116 40% 1 03.02.2027 -
Sampson Dweh Mallorca Активный 133 / 134 66% 1 01.01.2027 -
Amin Sarr Hellas Verona Активный 131 / 120 40% 6 31.12.2026 Наблюдать
Luca Moro Padova Активный 123 / 112 40% 4 31.12.2026 -
Wandile Duba ASO Chlef Активный 110 / 111 40% 1 31.12.2026 -
Pontus Almqvist Parma Активный 132 / 121 40% 1 30.12.2026 -
Armstrong Oko-Flex Levski Активный 117 / 127 40% 1 30.12.2026 -
Nicolò Fagioli Fiorentina Активный 141 / 147 40% 1 26.12.2026 -
Kirill Glebov CSKA Moscow Активный 123 / 116 40% 2 25.12.2026 -
Marcelo Allende Mamelodi Sundowns Активный 136 / 136 40% 1 25.12.2026 -
Vitinha Genoa Активный 129 / 135 40% 2 23.12.2026 -
Ivo Mammini Beitar Jerusalem Активный 115 / 117 40% 3 22.12.2026 -
Etiosa Ighodaro Kaizer Chiefs Активный 108 / 102 40% 2 21.12.2026 -
Matteo Rover Reggiana Активный 123 / 123 40% 1 20.12.2026 -
Giuseppe Di Serio Spezia Активный 117 / 111 40% 1 18.12.2026 -
Santiago Pierotti Lecce Активный 134 / 126 40% 4 17.12.2026 -
Yeangel Montero Naxxar Lions Активный 110 / 94 40% 1 15.12.2026 -
Lassina Traoré Shakhtar Активный 123 / 123 40% 1 14.12.2026 -
Matheus Davó Maccabi Netanya Активный 115 / 108 40% 1 13.12.2026 -
Talles Magno New York City Активный 124 / 119 40% 3 12.12.2026 -
Stiven Shpendi Empoli Активный 114 / 119 40% 6 12.12.2026 -
Lewis Ferguson Bologna Активный 144 / 146 40% 1 12.12.2026 -
Lorenzo Colombo Genoa Активный 133 / 142 40% 5 11.12.2026 -
Gianluca Scamacca Atalanta Активный 147 / 153 40% 2 11.12.2026 -
Radek Šiler Podbrezova Активный 112 / 112 40% 1 11.12.2026 -
Nicolò Zaniolo Udinese Активный 140 / 140 40% 8 06.12.2026 -
Andrea Colpani Monza Активный 137 / 143 40% 2 06.12.2026 -
Mehdi Dorval Catanzaro Активный 132 / 122 40% 1 06.12.2026 -
Mattia Felici Cagliari Активный 124 / 131 40% 1 04.12.2026 -
Suleiman Camara Slovan Bratislava Активный 118 / 123 40% 1 03.12.2026 -
Matej Trusa DAC Dunajska Streda Активный 110 / 120 40% 2 01.12.2026 -
Wessam Abou Ali Columbus Crew Активный 128 / 127 40% 4 24.11.2026 -
Giacomo Raspadori Atalanta Активный 143 / 147 40% 1 21.11.2026 -
Bienvenue Kanakimana Zbrojovka Brno Активный 124 / 124 40% 1 19.11.2026 -
Sota Kitano Red Bull Salzburg Активный 119 / 128 40% 3 18.11.2026 Наблюдать
Tadeo Allende Inter Miami CF Активный 128 / 135 40% 3 17.11.2026 -
Don Bolsius Ascoli Активный 108 / 96 40% 1 17.11.2026 -
Willem Geubbels Lecce Активный 125 / 127 40% 3 14.11.2026 -
Jens Petter Hauge Bodo/Glimt Активный 148 / 137 40% 1 14.11.2026 -
Marco Pašalić Orlando City Активный 123 / 128 40% 1 11.11.2026 -
David Miculescu FCSB Активный 113 / 111 40% 2 05.11.2026 -
Bradley Zwane SuperSport United Активный 117 / 108 40% 1 04.11.2026 -
Tommaso Pobega Bologna Активный 139 / 140 40% 2 03.11.2026 -
Kelvin Yeboah Minnesota United FC Активный 132 / 130 40% 1 30.10.2026 -
Marco Tumminello Benevento Активный 110 / 109 40% 2 29.10.2026 -
Germán Berterame Inter Miami CF Активный 132 / 129 40% 2 29.10.2026 -
Reda Khadra Qarabag Активный 131 / 124 40% 1 27.10.2026 -
André Wolverhampton Активный 137 / 149 40% 1 27.10.2026 -
Tyrese Campbell Sheffield United Активный 126 / 130 40% 3 25.10.2026 -
Bénie Traoré New York City Активный 122 / 138 40% 1 21.10.2026 -
Assad Al Hamlawi Universitatea Craiova Активный 127 / 108 40% 1 20.10.2026 -
Kwadwo Baah Watford Активный 130 / 125 40% 1 19.10.2026 -
Ramiro Ruiz Rodríguez Atlético Tucumán Активный 121 / 127 40% 1 13.10.2026 -
Jesus Ferreira Seattle Sounders Активный 124 / 124 40% 1 12.10.2026 -
Jackson Muleka Konyaspor Активный 121 / 111 40% 1 12.10.2026 -
Lucas Da Cunha Como Активный 138 / 143 40% 1 11.10.2026 -
Joshua Zirkzee Manchester United Активный 141 / 147 40% 1 07.10.2026 -
Duk Atlas Активный 109 / 102 40% 1 06.10.2026 -
Alejandro Piedrahita Deportivo Pereira Активный 129 / 133 40% 1 06.10.2026 -
Matt O'Riley Brighton Активный 140 / 142 40% 1 06.10.2026 -
Florentino Luís Ipswich Town Активный 139 / 144 40% 1 06.10.2026 -
Edoardo Pieragnolo Sassuolo Активный 125 / 129 76% 1 17.08.2026 За
Mateus Mané Burnley Активный 127 / 144 40% 1 17.08.2026 -
Ignacio Perruzzi San Lorenzo Активный 119 / 132 40% 1 11.08.2026 -
Lucas Bergvall Tottenham Активный 142 / 156 40% 1 01.08.2026 -